sensor_id;sensor_type;location;lat;lon;timestamp;temperature;humidity
488;DHT22;16586;48.976;9.584;2023-04-15T10:25:08;13.30;36.50
488;DHT22;16586;48.976;9.584;2023-04-15T10:27:36;13.60;37.80
488;DHT22;16586;48.976;9.584;2023-04-15T10:30:03;14.10;37.70
488;DHT22;16586;48.976;9.584;2023-04-15T10:32:31;14.50;33.60
488;DHT22;16586;48.976;9.584;2023-04-15T10:34:58;14.50;34.10
488;DHT22;16586;48.976;9.584;2023-04-15T10:37:34;14.40;34.30
488;DHT22;16586;48.976;9.584;2023-04-15T10:40:23;14.20;33.30
488;DHT22;16586;48.976;9.584;2023-04-15T10:42:50;13.70;33.90
488;DHT22;16586;48.976;9.584;2023-04-15T10:45:18;13.60;34.50
488;DHT22;16586;48.976;9.584;2023-04-15T10:47:44;12.90;36.20
488;DHT22;16586;48.976;9.584;2023-04-15T10:50:11;12.80;35.40
488;DHT22;16586;48.976;9.584;2023-04-15T10:52:40;12.60;36.00
488;DHT22;16586;48.976;9.584;2023-04-15T10:55:18;12.60;36.30
488;DHT22;16586;48.976;9.584;2023-04-15T10:57:46;12.90;37.80
488;DHT22;16586;48.976;9.584;2023-04-15T11:00:18;13.40;36.70
488;DHT22;16586;48.976;9.584;2023-04-15T11:02:47;13.50;34.90
488;DHT22;16586;48.976;9.584;2023-04-15T11:05:18;13.40;36.00
488;DHT22;16586;48.976;9.584;2023-04-15T11:07:50;13.10;36.00
488;DHT22;16586;48.976;9.584;2023-04-15T11:10:51;13.00;36.60
488;DHT22;16586;48.976;9.584;2023-04-15T11:13:23;12.90;35.40
488;DHT22;16586;48.976;9.584;2023-04-15T11:15:55;12.90;35.40
488;DHT22;16586;48.976;9.584;2023-04-15T11:18:24;12.80;36.50
488;DHT22;16586;48.976;9.584;2023-04-15T11:20:52;12.80;36.60
488;DHT22;16586;48.976;9.584;2023-04-15T11:23:28;12.90;36.40
488;DHT22;16586;48.976;9.584;2023-04-15T11:25:57;12.80;37.50
488;DHT22;16586;48.976;9.584;2023-04-15T11:28:25;12.80;38.50
488;DHT22;16586;48.976;9.584;2023-04-15T11:30:53;12.90;38.30
488;DHT22;16586;48.976;9.584;2023-04-15T11:33:21;13.10;36.80
488;DHT22;16586;48.976;9.584;2023-04-15T11:35:49;13.40;36.60
488;DHT22;16586;48.976;9.584;2023-04-15T11:38:17;13.50;35.90
488;DHT22;16586;48.976;9.584;2023-04-15T11:40:44;13.60;36.10
488;DHT22;16586;48.976;9.584;2023-04-15T11:43:13;13.40;37.60
488;DHT22;16586;48.976;9.584;2023-04-15T11:45:49;13.10;35.90
488;DHT22;16586;48.976;9.584;2023-04-15T11:48:17;13.20;36.70
488;DHT22;16586;48.976;9.584;2023-04-15T11:50:44;13.30;34.00
488;DHT22;16586;48.976;9.584;2023-04-15T11:53:12;13.50;33.40
488;DHT22;16586;48.976;9.584;2023-04-15T11:55:41;13.60;33.90
488;DHT22;16586;48.976;9.584;2023-04-15T11:58:09;13.70;34.30
488;DHT22;16586;48.976;9.584;2023-04-15T12:00:39;13.90;33.60
488;DHT22;16586;48.976;9.584;2023-04-15T12:03:16;14.10;33.40
488;DHT22;16586;48.976;9.584;2023-04-15T12:08:52;14.30;33.70
488;DHT22;16586;48.976;9.584;2023-04-15T12:11:19;14.40;33.90
488;DHT22;16586;48.976;9.584;2023-04-15T12:13:47;14.50;32.50
488;DHT22;16586;48.976;9.584;2023-04-15T12:16:17;14.20;33.20
488;DHT22;16586;48.976;9.584;2023-04-15T12:18:45;14.20;33.40
488;DHT22;16586;48.976;9.584;2023-04-15T12:21:13;14.30;33.80
488;DHT22;16586;48.976;9.584;2023-04-15T12:23:56;14.20;32.90
488;DHT22;16586;48.976;9.584;2023-04-15T12:26:27;14.00;33.30
488;DHT22;16586;48.976;9.584;2023-04-15T12:28:54;13.90;32.00
488;DHT22;16586;48.976;9.584;2023-04-15T12:31:23;14.00;33.60
488;DHT22;16586;48.976;9.584;2023-04-15T12:33:50;14.20;33.10
488;DHT22;16586;48.976;9.584;2023-04-15T12:36:17;14.20;32.00
488;DHT22;16586;48.976;9.584;2023-04-15T12:38:43;14.10;32.10
488;DHT22;16586;48.976;9.584;2023-04-15T12:41:12;14.00;32.00
488;DHT22;16586;48.976;9.584;2023-04-15T12:43:39;14.10;30.90
488;DHT22;16586;48.976;9.584;2023-04-15T12:46:08;14.20;29.90
488;DHT22;16586;48.976;9.584;2023-04-15T12:48:37;14.00;29.10
488;DHT22;16586;48.976;9.584;2023-04-15T12:51:04;14.00;30.50
488;DHT22;16586;48.976;9.584;2023-04-15T12:53:33;14.00;28.00
488;DHT22;16586;48.976;9.584;2023-04-15T12:56:06;13.90;29.20
488;DHT22;16586;48.976;9.584;2023-04-15T12:58:33;13.70;29.50
488;DHT22;16586;48.976;9.584;2023-04-15T13:01:02;13.40;28.10
488;DHT22;16586;48.976;9.584;2023-04-15T13:03:31;13.50;29.10
488;DHT22;16586;48.976;9.584;2023-04-15T13:06:02;13.70;28.00
488;DHT22;16586;48.976;9.584;2023-04-15T13:08:31;13.90;27.70
488;DHT22;16586;48.976;9.584;2023-04-15T13:10:59;13.70;27.10
488;DHT22;16586;48.976;9.584;2023-04-15T13:13:26;13.50;28.00
488;DHT22;16586;48.976;9.584;2023-04-15T13:15:53;13.10;27.60
488;DHT22;16586;48.976;9.584;2023-04-15T13:18:24;12.70;27.40
488;DHT22;16586;48.976;9.584;2023-04-15T13:20:51;12.90;25.80
488;DHT22;16586;48.976;9.584;2023-04-15T13:23:21;13.00;25.80
488;DHT22;16586;48.976;9.584;2023-04-15T13:25:47;13.10;26.10
488;DHT22;16586;48.976;9.584;2023-04-15T13:28:14;12.70;25.50
488;DHT22;16586;48.976;9.584;2023-04-15T13:30:41;12.50;27.00
488;DHT22;16586;48.976;9.584;2023-04-15T13:33:08;12.50;26.90
488;DHT22;16586;48.976;9.584;2023-04-15T13:35:35;12.50;26.80
488;DHT22;16586;48.976;9.584;2023-04-15T13:38:02;12.50;26.80
488;DHT22;16586;48.976;9.584;2023-04-15T13:40:30;12.50;27.80
488;DHT22;16586;48.976;9.584;2023-04-15T13:43:03;12.50;28.90
488;DHT22;16586;48.976;9.584;2023-04-15T13:45:38;12.60;28.90
488;DHT22;16586;48.976;9.584;2023-04-15T13:48:20;13.00;29.30
488;DHT22;16586;48.976;9.584;2023-04-15T13:51:01;12.50;29.70
488;DHT22;16586;48.976;9.584;2023-04-15T13:54:11;12.30;29.10
488;DHT22;16586;48.976;9.584;2023-04-15T13:57:00;12.40;29.60
488;DHT22;16586;48.976;9.584;2023-04-15T13:59:32;12.50;29.60
488;DHT22;16586;48.976;9.584;2023-04-15T14:18:46;12.50;32.00
488;DHT22;16586;48.976;9.584;2023-04-15T14:21:32;12.60;31.80
488;DHT22;16586;48.976;9.584;2023-04-15T14:32:04;12.60;35.10
488;DHT22;16586;48.976;9.584;2023-04-15T14:40:24;12.30;38.10
488;DHT22;16586;48.976;9.584;2023-04-15T14:42:51;12.30;38.20
488;DHT22;16586;48.976;9.584;2023-04-15T14:45:18;12.30;37.50
488;DHT22;16586;48.976;9.584;2023-04-15T14:47:46;12.10;38.20
488;DHT22;16586;48.976;9.584;2023-04-15T14:50:13;12.00;39.70
488;DHT22;16586;48.976;9.584;2023-04-15T14:52:43;11.90;40.30
488;DHT22;16586;48.976;9.584;2023-04-15T14:55:15;11.80;40.20
488;DHT22;16586;48.976;9.584;2023-04-15T14:57:45;11.80;40.80
488;DHT22;16586;48.976;9.584;2023-04-15T15:00:12;11.80;42.80
488;DHT22;16586;48.976;9.584;2023-04-15T15:02:41;12.10;42.60
488;DHT22;16586;48.976;9.584;2023-04-15T15:05:09;12.20;43.80
488;DHT22;16586;48.976;9.584;2023-04-15T15:07:37;12.30;43.60
488;DHT22;16586;48.976;9.584;2023-04-15T15:10:05;12.40;44.70
488;DHT22;16586;48.976;9.584;2023-04-15T15:12:33;12.50;44.10
488;DHT22;16586;48.976;9.584;2023-04-15T15:15:02;12.60;44.90
488;DHT22;16586;48.976;9.584;2023-04-15T15:17:29;12.70;43.60
488;DHT22;16586;48.976;9.584;2023-04-15T15:19:56;12.70;44.00
488;DHT22;16586;48.976;9.584;2023-04-15T15:22:23;12.70;44.30
488;DHT22;16586;48.976;9.584;2023-04-15T15:24:50;12.80;44.40
488;DHT22;16586;48.976;9.584;2023-04-15T15:27:18;13.00;44.20
488;DHT22;16586;48.976;9.584;2023-04-15T15:29:44;13.00;44.50
488;DHT22;16586;48.976;9.584;2023-04-15T15:32:12;13.00;43.60
488;DHT22;16586;48.976;9.584;2023-04-15T15:34:39;12.90;43.70
488;DHT22;16586;48.976;9.584;2023-04-15T15:37:06;12.80;44.40
488;DHT22;16586;48.976;9.584;2023-04-15T15:39:34;12.80;44.30
488;DHT22;16586;48.976;9.584;2023-04-15T15:42:01;12.80;45.00
488;DHT22;16586;48.976;9.584;2023-04-15T15:44:27;12.90;44.40
488;DHT22;16586;48.976;9.584;2023-04-15T15:46:54;12.70;44.30
488;DHT22;16586;48.976;9.584;2023-04-15T15:49:22;12.70;45.40
488;DHT22;16586;48.976;9.584;2023-04-15T15:51:50;12.30;46.00
488;DHT22;16586;48.976;9.584;2023-04-15T15:54:17;12.20;48.60
488;DHT22;16586;48.976;9.584;2023-04-15T15:56:43;11.80;47.70
488;DHT22;16586;48.976;9.584;2023-04-15T15:59:10;11.80;49.50
488;DHT22;16586;48.976;9.584;2023-04-15T16:01:37;11.80;50.80
488;DHT22;16586;48.976;9.584;2023-04-15T16:04:04;11.60;51.30
488;DHT22;16586;48.976;9.584;2023-04-15T16:06:32;11.40;51.90
488;DHT22;16586;48.976;9.584;2023-04-15T16:08:59;10.90;53.10
488;DHT22;16586;48.976;9.584;2023-04-15T16:11:26;10.70;54.20
488;DHT22;16586;48.976;9.584;2023-04-15T16:13:54;10.70;54.40
488;DHT22;16586;48.976;9.584;2023-04-15T16:16:20;10.80;54.90
488;DHT22;16586;48.976;9.584;2023-04-15T16:18:48;10.90;53.60
488;DHT22;16586;48.976;9.584;2023-04-15T16:21:15;10.80;54.90
488;DHT22;16586;48.976;9.584;2023-04-15T16:23:43;11.00;54.80
488;DHT22;16586;48.976;9.584;2023-04-15T16:26:10;11.00;54.40
488;DHT22;16586;48.976;9.584;2023-04-15T16:28:37;11.00;54.90
488;DHT22;16586;48.976;9.584;2023-04-15T16:31:03;11.00;55.30
488;DHT22;16586;48.976;9.584;2023-04-15T16:33:31;10.80;55.40
488;DHT22;16586;48.976;9.584;2023-04-15T16:35:58;10.70;55.60
488;DHT22;16586;48.976;9.584;2023-04-15T16:38:24;10.60;56.50
488;DHT22;16586;48.976;9.584;2023-04-15T16:40:53;10.40;54.20
488;DHT22;16586;48.976;9.584;2023-04-15T16:43:20;10.40;57.40
488;DHT22;16586;48.976;9.584;2023-04-15T16:45:47;10.50;57.40
488;DHT22;16586;48.976;9.584;2023-04-15T16:48:24;10.60;56.80
488;DHT22;16586;48.976;9.584;2023-04-15T16:50:54;10.50;58.10
488;DHT22;16586;48.976;9.584;2023-04-15T16:53:56;10.60;56.50
488;DHT22;16586;48.976;9.584;2023-04-15T16:56:25;10.80;58.70
488;DHT22;16586;48.976;9.584;2023-04-15T16:58:58;10.40;58.30
488;DHT22;16586;48.976;9.584;2023-04-15T17:01:25;10.40;59.00
488;DHT22;16586;48.976;9.584;2023-04-15T17:03:52;10.40;59.70
488;DHT22;16586;48.976;9.584;2023-04-15T17:06:19;10.40;57.60
488;DHT22;16586;48.976;9.584;2023-04-15T17:08:45;10.60;59.20
488;DHT22;16586;48.976;9.584;2023-04-15T17:11:12;10.60;58.00
488;DHT22;16586;48.976;9.584;2023-04-15T17:13:41;10.50;58.50
488;DHT22;16586;48.976;9.584;2023-04-15T17:16:08;10.50;59.00
488;DHT22;16586;48.976;9.584;2023-04-15T17:18:35;10.60;58.50
488;DHT22;16586;48.976;9.584;2023-04-15T17:21:02;10.60;59.10
488;DHT22;16586;48.976;9.584;2023-04-15T17:23:28;10.50;60.10
488;DHT22;16586;48.976;9.584;2023-04-15T17:25:55;10.40;58.20
488;DHT22;16586;48.976;9.584;2023-04-15T17:28:22;10.30;59.60
488;DHT22;16586;48.976;9.584;2023-04-15T17:30:50;10.30;60.50
488;DHT22;16586;48.976;9.584;2023-04-15T17:33:17;10.10;61.10
488;DHT22;16586;48.976;9.584;2023-04-15T17:35:44;10.00;60.80
488;DHT22;16586;48.976;9.584;2023-04-15T17:38:10;9.90;62.80
488;DHT22;16586;48.976;9.584;2023-04-15T17:40:37;10.00;63.00
488;DHT22;16586;48.976;9.584;2023-04-15T17:43:04;10.00;62.70
488;DHT22;16586;48.976;9.584;2023-04-15T17:45:30;10.10;61.70
488;DHT22;16586;48.976;9.584;2023-04-15T17:47:59;9.70;64.30
488;DHT22;16586;48.976;9.584;2023-04-15T17:50:27;9.40;65.40
488;DHT22;16586;48.976;9.584;2023-04-15T17:52:54;9.40;65.80
488;DHT22;16586;48.976;9.584;2023-04-15T17:55:22;9.50;67.90
488;DHT22;16586;48.976;9.584;2023-04-15T17:57:49;9.40;66.60
488;DHT22;16586;48.976;9.584;2023-04-15T18:00:16;9.50;68.60
488;DHT22;16586;48.976;9.584;2023-04-15T18:02:43;9.60;66.20
488;DHT22;16586;48.976;9.584;2023-04-15T18:05:11;9.40;68.70
488;DHT22;16586;48.976;9.584;2023-04-15T18:07:38;9.40;67.70
488;DHT22;16586;48.976;9.584;2023-04-15T18:10:06;9.40;67.80
488;DHT22;16586;48.976;9.584;2023-04-15T18:12:33;9.40;68.90
488;DHT22;16586;48.976;9.584;2023-04-15T18:15:00;9.30;68.60
488;DHT22;16586;48.976;9.584;2023-04-15T18:17:27;9.10;70.10
488;DHT22;16586;48.976;9.584;2023-04-15T18:19:53;9.10;70.50
488;DHT22;16586;48.976;9.584;2023-04-15T18:22:22;9.20;70.90
488;DHT22;16586;48.976;9.584;2023-04-15T18:24:48;9.30;68.80
488;DHT22;16586;48.976;9.584;2023-04-15T18:27:15;9.20;66.00
488;DHT22;16586;48.976;9.584;2023-04-15T18:29:42;9.20;69.30
488;DHT22;16586;48.976;9.584;2023-04-15T18:32:09;9.10;67.40
488;DHT22;16586;48.976;9.584;2023-04-15T18:34:36;9.00;70.10
488;DHT22;16586;48.976;9.584;2023-04-15T18:37:03;9.10;70.70
488;DHT22;16586;48.976;9.584;2023-04-15T18:39:32;9.20;69.10
488;DHT22;16586;48.976;9.584;2023-04-15T18:41:59;9.30;69.30
488;DHT22;16586;48.976;9.584;2023-04-15T18:44:26;9.30;68.50
488;DHT22;16586;48.976;9.584;2023-04-15T18:46:53;9.40;68.80
488;DHT22;16586;48.976;9.584;2023-04-15T18:49:19;9.70;68.70
488;DHT22;16586;48.976;9.584;2023-04-15T18:51:46;10.10;67.10
488;DHT22;16586;48.976;9.584;2023-04-15T18:54:13;9.60;68.50
488;DHT22;16586;48.976;9.584;2023-04-15T18:56:41;9.20;68.80
488;DHT22;16586;48.976;9.584;2023-04-15T18:59:08;9.20;69.00
488;DHT22;16586;48.976;9.584;2023-04-15T19:01:35;9.10;69.80
488;DHT22;16586;48.976;9.584;2023-04-15T19:04:02;9.00;69.70
488;DHT22;16586;48.976;9.584;2023-04-15T19:06:29;9.20;69.80
488;DHT22;16586;48.976;9.584;2023-04-15T19:08:56;9.30;72.20
488;DHT22;16586;48.976;9.584;2023-04-15T19:11:24;9.20;71.20
488;DHT22;16586;48.976;9.584;2023-04-15T19:13:53;9.10;70.20
488;DHT22;16586;48.976;9.584;2023-04-15T19:16:20;9.20;71.50
488;DHT22;16586;48.976;9.584;2023-04-15T19:18:47;9.30;70.00
488;DHT22;16586;48.976;9.584;2023-04-15T19:21:14;9.30;69.70
488;DHT22;16586;48.976;9.584;2023-04-15T19:23:41;9.20;68.70
488;DHT22;16586;48.976;9.584;2023-04-15T19:26:08;9.20;70.00
488;DHT22;16586;48.976;9.584;2023-04-15T19:28:35;9.10;70.30
488;DHT22;16586;48.976;9.584;2023-04-15T19:31:04;9.00;70.80
488;DHT22;16586;48.976;9.584;2023-04-15T19:33:31;9.00;71.20
488;DHT22;16586;48.976;9.584;2023-04-15T19:36:00;9.00;71.30
488;DHT22;16586;48.976;9.584;2023-04-15T19:38:41;9.00;71.70
488;DHT22;16586;48.976;9.584;2023-04-15T19:41:21;9.10;70.90
488;DHT22;16586;48.976;9.584;2023-04-15T19:43:47;9.10;71.00
488;DHT22;16586;48.976;9.584;2023-04-15T19:46:16;9.10;70.50
488;DHT22;16586;48.976;9.584;2023-04-15T19:48:42;8.90;70.60
488;DHT22;16586;48.976;9.584;2023-04-15T19:51:10;8.70;72.10
488;DHT22;16586;48.976;9.584;2023-04-15T19:53:37;8.80;72.80
488;DHT22;16586;48.976;9.584;2023-04-15T19:56:03;8.60;73.70
488;DHT22;16586;48.976;9.584;2023-04-15T19:58:30;8.60;72.70
488;DHT22;16586;48.976;9.584;2023-04-15T20:00:58;8.60;73.50
488;DHT22;16586;48.976;9.584;2023-04-15T20:03:27;8.70;73.50
488;DHT22;16586;48.976;9.584;2023-04-15T20:05:53;8.50;72.60
488;DHT22;16586;48.976;9.584;2023-04-15T20:08:20;8.40;72.80
488;DHT22;16586;48.976;9.584;2023-04-15T20:10:47;8.60;71.60
488;DHT22;16586;48.976;9.584;2023-04-15T20:13:14;8.70;72.10
488;DHT22;16586;48.976;9.584;2023-04-15T20:15:40;8.70;71.70
488;DHT22;16586;48.976;9.584;2023-04-15T20:18:07;8.70;70.60
488;DHT22;16586;48.976;9.584;2023-04-15T20:20:39;8.70;71.60
488;DHT22;16586;48.976;9.584;2023-04-15T20:23:05;8.70;71.50
488;DHT22;16586;48.976;9.584;2023-04-15T20:25:32;8.70;71.90
488;DHT22;16586;48.976;9.584;2023-04-15T20:27:59;8.70;70.80
488;DHT22;16586;48.976;9.584;2023-04-15T20:30:26;8.70;71.10
488;DHT22;16586;48.976;9.584;2023-04-15T20:32:53;8.70;70.50
488;DHT22;16586;48.976;9.584;2023-04-15T20:35:20;8.70;69.30
488;DHT22;16586;48.976;9.584;2023-04-15T20:37:48;8.70;69.70
488;DHT22;16586;48.976;9.584;2023-04-15T20:40:15;8.70;68.80
488;DHT22;16586;48.976;9.584;2023-04-15T20:42:42;8.90;70.60
488;DHT22;16586;48.976;9.584;2023-04-15T20:45:09;9.10;69.20
488;DHT22;16586;48.976;9.584;2023-04-15T20:47:36;9.20;69.80
488;DHT22;16586;48.976;9.584;2023-04-15T20:50:03;9.20;69.40
488;DHT22;16586;48.976;9.584;2023-04-15T20:52:30;9.40;68.80
488;DHT22;16586;48.976;9.584;2023-04-15T20:54:58;9.50;68.30
488;DHT22;16586;48.976;9.584;2023-04-15T20:57:25;9.40;69.20
488;DHT22;16586;48.976;9.584;2023-04-15T20:59:53;9.50;68.90
488;DHT22;16586;48.976;9.584;2023-04-15T21:02:21;9.70;68.50
488;DHT22;16586;48.976;9.584;2023-04-15T21:04:48;9.80;66.50
488;DHT22;16586;48.976;9.584;2023-04-15T21:07:15;9.90;65.50
488;DHT22;16586;48.976;9.584;2023-04-15T21:09:41;10.00;64.30
488;DHT22;16586;48.976;9.584;2023-04-15T21:12:10;10.00;64.60
488;DHT22;16586;48.976;9.584;2023-04-15T21:14:38;10.00;65.20
488;DHT22;16586;48.976;9.584;2023-04-15T21:17:04;10.00;65.10
488;DHT22;16586;48.976;9.584;2023-04-15T21:19:32;10.00;66.80
488;DHT22;16586;48.976;9.584;2023-04-15T21:21:59;10.10;64.40
488;DHT22;16586;48.976;9.584;2023-04-15T21:24:26;10.20;63.80
488;DHT22;16586;48.976;9.584;2023-04-15T21:26:53;10.10;64.20
488;DHT22;16586;48.976;9.584;2023-04-15T21:29:22;9.90;64.30
488;DHT22;16586;48.976;9.584;2023-04-15T21:31:49;9.90;65.40
488;DHT22;16586;48.976;9.584;2023-04-15T21:34:16;10.00;64.70
488;DHT22;16586;48.976;9.584;2023-04-15T21:36:43;10.00;64.80
488;DHT22;16586;48.976;9.584;2023-04-15T21:39:10;9.90;65.20
488;DHT22;16586;48.976;9.584;2023-04-15T21:41:36;9.70;66.70
488;DHT22;16586;48.976;9.584;2023-04-15T21:44:03;9.70;67.70
488;DHT22;16586;48.976;9.584;2023-04-15T21:46:31;9.70;65.50
488;DHT22;16586;48.976;9.584;2023-04-15T21:48:58;9.60;67.30
488;DHT22;16586;48.976;9.584;2023-04-15T21:51:25;9.90;66.40
488;DHT22;16586;48.976;9.584;2023-04-15T21:53:52;9.70;66.60
488;DHT22;16586;48.976;9.584;2023-04-15T21:56:18;9.80;69.20
488;DHT22;16586;48.976;9.584;2023-04-15T21:58:47;9.90;67.80
488;DHT22;16586;48.976;9.584;2023-04-15T22:01:14;10.10;65.20
488;DHT22;16586;48.976;9.584;2023-04-15T22:03:42;10.20;63.80
488;DHT22;16586;48.976;9.584;2023-04-15T22:06:09;10.20;64.40
488;DHT22;16586;48.976;9.584;2023-04-15T22:08:38;10.30;63.70
488;DHT22;16586;48.976;9.584;2023-04-15T22:11:05;10.40;63.60
488;DHT22;16586;48.976;9.584;2023-04-15T22:13:32;10.40;63.20
488;DHT22;16586;48.976;9.584;2023-04-15T22:15:59;10.30;64.00
488;DHT22;16586;48.976;9.584;2023-04-15T22:18:26;10.20;63.00
488;DHT22;16586;48.976;9.584;2023-04-15T22:20:54;9.90;64.90
488;DHT22;16586;48.976;9.584;2023-04-15T22:23:21;10.00;65.30
488;DHT22;16586;48.976;9.584;2023-04-15T22:25:48;10.10;65.00
488;DHT22;16586;48.976;9.584;2023-04-15T22:28:15;10.00;65.30
488;DHT22;16586;48.976;9.584;2023-04-15T22:30:41;10.10;65.10
488;DHT22;16586;48.976;9.584;2023-04-15T22:33:08;10.00;65.20
488;DHT22;16586;48.976;9.584;2023-04-15T22:35:35;10.20;65.90
488;DHT22;16586;48.976;9.584;2023-04-15T22:38:04;9.70;65.70
488;DHT22;16586;48.976;9.584;2023-04-15T22:40:31;9.60;69.00
488;DHT22;16586;48.976;9.584;2023-04-15T22:42:58;9.60;69.00
488;DHT22;16586;48.976;9.584;2023-04-15T22:45:25;9.70;68.10
488;DHT22;16586;48.976;9.584;2023-04-15T22:47:51;9.70;68.40
488;DHT22;16586;48.976;9.584;2023-04-15T22:50:18;9.60;68.30
488;DHT22;16586;48.976;9.584;2023-04-15T22:52:45;9.50;67.70
488;DHT22;16586;48.976;9.584;2023-04-15T22:55:14;9.70;69.10
488;DHT22;16586;48.976;9.584;2023-04-15T22:57:41;9.40;68.90
488;DHT22;16586;48.976;9.584;2023-04-15T23:00:08;9.60;69.40
488;DHT22;16586;48.976;9.584;2023-04-15T23:02:35;9.70;69.10
488;DHT22;16586;48.976;9.584;2023-04-15T23:05:02;9.60;69.00
488;DHT22;16586;48.976;9.584;2023-04-15T23:07:29;9.60;69.00
488;DHT22;16586;48.976;9.584;2023-04-15T23:09:56;9.70;70.10
488;DHT22;16586;48.976;9.584;2023-04-15T23:12:26;9.70;70.80
488;DHT22;16586;48.976;9.584;2023-04-15T23:14:52;9.80;71.20
488;DHT22;16586;48.976;9.584;2023-04-15T23:17:19;10.00;68.40
488;DHT22;16586;48.976;9.584;2023-04-15T23:19:46;10.00;66.90
488;DHT22;16586;48.976;9.584;2023-04-15T23:22:13;10.00;67.20
488;DHT22;16586;48.976;9.584;2023-04-15T23:24:39;9.90;68.30
488;DHT22;16586;48.976;9.584;2023-04-15T23:27:06;9.80;69.20
488;DHT22;16586;48.976;9.584;2023-04-15T23:29:34;9.80;69.20
488;DHT22;16586;48.976;9.584;2023-04-15T23:32:01;9.90;69.70
488;DHT22;16586;48.976;9.584;2023-04-15T23:34:28;10.00;67.80
488;DHT22;16586;48.976;9.584;2023-04-15T23:36:55;10.10;67.20
488;DHT22;16586;48.976;9.584;2023-04-15T23:39:21;10.30;66.70
488;DHT22;16586;48.976;9.584;2023-04-15T23:41:48;9.90;69.30
488;DHT22;16586;48.976;9.584;2023-04-15T23:44:15;10.00;67.90
488;DHT22;16586;48.976;9.584;2023-04-15T23:46:43;10.00;66.90
488;DHT22;16586;48.976;9.584;2023-04-15T23:49:10;10.00;67.60
488;DHT22;16586;48.976;9.584;2023-04-15T23:51:36;10.20;66.40
488;DHT22;16586;48.976;9.584;2023-04-15T23:54:03;10.20;66.60
488;DHT22;16586;48.976;9.584;2023-04-15T23:56:30;10.20;66.20
488;DHT22;16586;48.976;9.584;2023-04-15T23:58:57;10.00;65.80
